createdAt,value
2017-11-03T00:02:26.788Z,26.50
2017-11-03T00:04:54.301Z,25.63
2017-11-03T00:07:21.784Z,25.50
2017-11-03T00:09:49.288Z,26.47
2017-11-03T00:12:16.791Z,25.30
2017-11-03T00:14:45.060Z,26.00
2017-11-03T00:17:12.553Z,26.00
2017-11-03T00:19:40.829Z,24.40
2017-11-03T00:22:09.080Z,25.57
2017-11-03T00:24:38.673Z,25.67
2017-11-03T00:27:06.199Z,25.87
2017-11-03T00:29:33.712Z,25.40
2017-11-03T00:32:06.952Z,22.00
2017-11-03T00:34:34.464Z,22.20
2017-11-03T00:37:02.716Z,25.20
2017-11-03T00:39:30.233Z,26.50
2017-11-03T00:41:57.748Z,23.00
2017-11-03T00:44:25.252Z,22.20
2017-11-03T00:46:52.749Z,22.50
2017-11-03T00:49:20.257Z,24.63
2017-11-03T00:51:47.748Z,20.73
2017-11-03T00:54:15.272Z,21.00
2017-11-03T00:56:42.755Z,23.80
2017-11-03T00:59:10.248Z,24.07
2017-11-03T01:01:37.753Z,23.50
2017-11-03T01:04:06.007Z,23.80
2017-11-03T01:06:33.532Z,22.23
2017-11-03T01:09:01.028Z,24.20
2017-11-03T01:11:28.527Z,24.60
2017-11-03T01:13:56.015Z,24.13
2017-11-03T01:16:24.284Z,24.80
2017-11-03T01:18:51.769Z,25.90
2017-11-03T01:21:20.050Z,26.30
2017-11-03T01:23:48.312Z,25.70
2017-11-03T01:26:15.812Z,25.80
2017-11-03T01:28:43.296Z,25.47
2017-11-03T01:31:11.565Z,25.90
2017-11-03T01:33:39.053Z,24.20
2017-11-03T01:36:07.321Z,24.17
2017-11-03T01:38:34.809Z,25.60
2017-11-03T01:41:03.069Z,25.57
2017-11-03T01:43:30.547Z,24.00
2017-11-03T01:45:58.040Z,26.70
2017-11-03T01:48:26.289Z,26.83
2017-11-03T01:50:53.784Z,24.70
2017-11-03T01:53:21.272Z,29.37
2017-11-03T01:55:49.543Z,26.60
2017-11-03T01:58:17.029Z,25.47
2017-11-03T02:00:45.292Z,25.30
2017-11-03T02:03:12.772Z,25.13
2017-11-03T02:05:40.276Z,24.63
2017-11-03T02:08:07.766Z,24.67
2017-11-03T02:10:35.264Z,26.23
2017-11-03T02:13:02.759Z,26.83
2017-11-03T02:15:31.032Z,26.13
2017-11-03T02:17:58.528Z,25.57
2017-11-03T02:20:26.808Z,25.27
2017-11-03T02:22:55.078Z,26.83
2017-11-03T02:25:22.580Z,25.50
2017-11-03T02:27:50.828Z,26.50
2017-11-03T02:30:18.332Z,24.57
2017-11-03T02:32:46.596Z,25.60
2017-11-03T02:35:14.105Z,25.50
2017-11-03T02:37:41.617Z,25.40
2017-11-03T02:40:09.112Z,26.77
2017-11-03T02:42:36.619Z,25.47
2017-11-03T02:45:04.124Z,27.43
2017-11-03T02:47:31.635Z,28.03
2017-11-03T02:49:59.893Z,27.20
2017-11-03T02:52:27.400Z,28.57
2017-11-03T02:54:55.656Z,28.90
2017-11-03T02:57:23.156Z,28.97
2017-11-03T02:59:51.408Z,28.27
2017-11-03T03:02:18.908Z,27.80
2017-11-03T03:04:46.389Z,28.00
2017-11-03T03:07:14.661Z,27.90
2017-11-03T03:09:42.147Z,27.50
2017-11-03T03:12:09.656Z,28.30
2017-11-03T03:14:37.132Z,30.10
2017-11-03T03:17:04.636Z,28.10
2017-11-03T03:19:32.134Z,31.10
2017-11-03T03:21:59.655Z,29.13
2017-11-03T03:24:27.177Z,29.10
2017-11-03T03:26:54.664Z,27.37
2017-11-03T03:29:22.174Z,27.73
2017-11-03T03:31:49.657Z,27.57
2017-11-03T03:34:17.168Z,28.43
2017-11-03T03:36:45.429Z,26.70
2017-11-03T03:39:13.705Z,26.50
2017-11-03T03:41:41.192Z,28.00
2017-11-03T03:44:09.473Z,29.33
2017-11-03T03:46:37.736Z,28.83
2017-11-03T03:49:05.244Z,28.90
2017-11-03T03:51:32.732Z,26.80
2017-11-03T03:54:00.237Z,27.40
2017-11-03T03:56:27.724Z,27.37
2017-11-03T03:58:55.225Z,28.07
2017-11-03T04:01:23.475Z,27.03
2017-11-03T04:03:50.981Z,29.00
2017-11-03T04:06:19.240Z,28.20
2017-11-03T04:08:46.745Z,28.43
2017-11-03T04:11:14.993Z,28.90
2017-11-03T04:13:42.510Z,27.97
2017-11-03T04:16:10.002Z,27.90
2017-11-03T04:18:37.514Z,25.87
2017-11-03T04:21:04.996Z,28.83
2017-11-03T04:23:32.473Z,28.30
2017-11-03T04:26:00.744Z,27.50
2017-11-03T04:28:28.225Z,24.43
2017-11-03T04:30:56.493Z,29.27
2017-11-03T04:33:23.972Z,27.67
2017-11-03T04:35:51.472Z,26.77
2017-11-03T04:38:18.953Z,26.33
2017-11-03T04:40:46.463Z,26.37
2017-11-03T04:43:13.950Z,26.07
2017-11-03T04:45:41.468Z,27.00
2017-11-03T04:48:08.973Z,26.73
2017-11-03T04:50:36.495Z,27.20
2017-11-03T04:53:03.976Z,28.10
2017-11-03T04:55:31.480Z,26.57
2017-11-03T04:57:58.976Z,27.27
2017-11-03T05:00:26.484Z,28.43
2017-11-03T05:02:53.971Z,28.77
2017-11-03T05:05:22.236Z,24.97
2017-11-03T05:07:49.716Z,25.00
2017-11-03T05:10:17.225Z,25.60
2017-11-03T05:12:44.716Z,22.80
2017-11-03T05:15:12.243Z,24.57
2017-11-03T05:17:39.728Z,24.30
2017-11-03T05:20:07.213Z,23.33
2017-11-03T05:22:34.719Z,25.10
2017-11-03T05:25:02.195Z,26.10
2017-11-03T05:27:29.723Z,30.40
2017-11-03T05:29:57.200Z,30.07
2017-11-03T05:32:24.705Z,30.07
2017-11-03T05:34:52.184Z,28.57
2017-11-03T05:37:19.799Z,30.27
2017-11-03T05:39:47.284Z,30.60
2017-11-03T05:42:14.780Z,30.77
2017-11-03T05:44:43.041Z,29.40
2017-11-03T05:47:10.559Z,28.90
2017-11-03T05:49:38.057Z,29.50
2017-11-03T05:52:05.565Z,29.37
2017-11-03T05:54:33.817Z,28.83
2017-11-03T05:57:01.328Z,29.70
2017-11-03T05:59:29.588Z,28.77
2017-11-03T06:01:57.096Z,25.97
2017-11-03T06:04:25.355Z,29.53
2017-11-03T06:06:52.861Z,28.40
2017-11-03T06:09:20.360Z,28.30
2017-11-03T06:11:47.869Z,27.50
2017-11-03T06:14:15.360Z,27.30
2017-11-03T06:16:43.633Z,25.00
2017-11-03T06:19:11.116Z,25.60
2017-11-03T06:21:39.385Z,26.17
2017-11-03T06:24:06.872Z,26.40
2017-11-03T06:26:34.589Z,29.40
2017-11-03T06:29:02.076Z,26.87
2017-11-03T06:31:29.617Z,27.43
2017-11-03T06:33:57.104Z,29.10
2017-11-03T06:36:27.465Z,27.70
2017-11-03T06:38:54.956Z,27.93
2017-11-03T06:41:23.227Z,31.70
2017-11-03T06:43:50.712Z,30.60
2017-11-03T06:46:18.233Z,33.30
2017-11-03T06:48:45.716Z,42.07
2017-11-03T06:51:13.219Z,40.47
2017-11-03T06:53:40.700Z,41.43
2017-11-03T06:56:08.959Z,40.70
2017-11-03T06:58:36.464Z,38.17
2017-11-03T07:01:04.727Z,36.40
2017-11-03T07:03:32.212Z,42.00
2017-11-03T07:06:00.496Z,40.93
2017-11-03T07:08:27.988Z,35.20
2017-11-03T07:10:56.254Z,29.97
2017-11-03T07:13:24.514Z,32.60
2017-11-03T07:15:52.017Z,31.13
2017-11-03T07:18:19.500Z,33.70
2017-11-03T07:20:47.772Z,35.07
2017-11-03T07:23:15.260Z,36.80
2017-11-03T07:25:43.520Z,37.60
2017-11-03T07:28:11.023Z,34.80
2017-11-03T07:30:39.268Z,33.77
2017-11-03T07:33:06.772Z,35.43
2017-11-03T07:35:35.033Z,31.17
2017-11-03T07:38:02.536Z,32.80
2017-11-03T07:40:30.783Z,28.97
2017-11-03T07:42:58.284Z,28.70
2017-11-03T07:45:26.584Z,28.43
2017-11-03T07:47:54.857Z,29.27
2017-11-03T07:50:22.344Z,29.43
2017-11-03T07:52:49.847Z,29.87
2017-11-03T07:55:17.329Z,30.27
2017-11-03T07:57:44.835Z,28.57
2017-11-03T08:00:13.116Z,35.03
2017-11-03T08:02:40.624Z,33.17
2017-11-03T08:05:08.108Z,31.80
2017-11-03T08:07:36.376Z,32.90
2017-11-03T08:10:03.864Z,29.77
2017-11-03T08:12:31.368Z,28.93
2017-11-03T08:14:58.863Z,32.97
2017-11-03T08:17:26.369Z,32.57
2017-11-03T08:19:53.857Z,34.20
2017-11-03T08:22:21.357Z,32.77
2017-11-03T08:24:48.836Z,33.67
2017-11-03T08:27:16.339Z,31.77
2017-11-03T08:29:43.820Z,32.67
2017-11-03T08:32:11.317Z,34.40
2017-11-03T08:34:38.804Z,32.50
2017-11-03T08:37:06.312Z,34.00
2017-11-03T08:39:34.568Z,32.30
2017-11-03T08:42:02.074Z,31.20
2017-11-03T08:44:29.552Z,33.00
2017-11-03T08:46:57.057Z,33.40
2017-11-03T08:49:24.546Z,31.03
2017-11-03T08:51:52.083Z,31.73
2017-11-03T08:54:19.572Z,32.43
2017-11-03T08:56:47.076Z,31.37
2017-11-03T08:59:15.329Z,32.60
2017-11-03T09:01:42.849Z,32.33
2017-11-03T09:04:11.147Z,31.87
2017-11-03T09:06:38.655Z,31.60
2017-11-03T09:09:06.166Z,30.80
2017-11-03T09:11:34.440Z,37.80
2017-11-03T09:14:01.928Z,32.47
2017-11-03T09:16:30.204Z,30.87
2017-11-03T09:18:57.694Z,31.57
2017-11-03T09:21:25.968Z,32.30
2017-11-03T09:23:53.456Z,31.20
2017-11-03T09:26:20.951Z,31.50
2017-11-03T09:28:48.461Z,28.90
2017-11-03T09:31:15.944Z,30.13
2017-11-03T09:33:43.451Z,30.70
2017-11-03T09:36:10.935Z,30.17
2017-11-03T09:38:38.443Z,30.17
2017-11-03T09:41:05.927Z,30.60
2017-11-03T09:43:34.204Z,29.77
2017-11-03T09:46:01.696Z,31.00
2017-11-03T09:48:29.969Z,32.53
2017-11-03T09:50:57.459Z,31.63
2017-11-03T09:53:25.740Z,31.00
2017-11-03T09:55:53.995Z,34.40
2017-11-03T09:58:21.508Z,33.47
2017-11-03T10:00:49.032Z,31.10
2017-11-03T10:03:16.539Z,30.63
2017-11-03T10:05:44.804Z,28.63
2017-11-03T10:08:12.313Z,26.40
2017-11-03T10:10:39.804Z,30.23
2017-11-03T10:13:07.308Z,29.70
2017-11-03T10:15:34.792Z,30.10
2017-11-03T10:18:02.304Z,29.67
2017-11-03T10:20:29.795Z,29.47
2017-11-03T10:22:57.299Z,27.17
2017-11-03T10:25:24.784Z,27.57
2017-11-03T10:27:53.065Z,29.00
2017-11-03T10:30:20.553Z,29.47
2017-11-03T10:32:48.824Z,27.73
2017-11-03T10:35:17.113Z,26.80
2017-11-03T10:37:44.611Z,27.03
2017-11-03T10:40:12.108Z,28.20
2017-11-03T10:42:39.629Z,28.57
2017-11-03T10:45:07.929Z,29.20
2017-11-03T10:47:36.204Z,27.37
2017-11-03T10:50:04.470Z,27.70
2017-11-03T10:52:32.011Z,31.20
2017-11-03T10:54:59.511Z,28.33
2017-11-03T10:57:27.024Z,25.33
2017-11-03T10:59:54.524Z,29.47
2017-11-03T11:02:22.041Z,25.90
2017-11-03T11:04:50.301Z,23.97
2017-11-03T11:07:17.813Z,24.33
2017-11-03T11:09:46.073Z,25.60
2017-11-03T11:12:13.584Z,26.50
2017-11-03T11:14:41.069Z,25.53
2017-11-03T11:17:08.596Z,21.93
2017-11-03T11:19:36.093Z,21.97
2017-11-03T11:22:03.608Z,21.63
2017-11-03T11:24:31.112Z,20.63
2017-11-03T11:26:58.627Z,22.90
2017-11-03T11:29:26.192Z,21.70
2017-11-03T11:31:53.700Z,24.40
2017-11-03T11:34:21.184Z,21.37
2017-11-03T11:36:48.667Z,19.77
2017-11-03T11:39:16.939Z,21.10
2017-11-03T11:41:44.420Z,22.37
2017-11-03T11:44:11.926Z,21.17
2017-11-03T11:46:39.416Z,23.47
2017-11-03T11:49:06.928Z,22.30
2017-11-03T11:51:34.417Z,22.57
2017-11-03T11:54:02.691Z,22.50
2017-11-03T11:56:30.948Z,21.07
2017-11-03T11:58:58.460Z,21.83
2017-11-03T12:01:26.729Z,21.90
2017-11-03T12:03:54.232Z,18.80
2017-11-03T12:06:21.711Z,19.93
2017-11-03T12:08:49.219Z,20.10
2017-11-03T12:11:16.708Z,20.10
2017-11-03T12:13:44.220Z,19.00
2017-11-03T12:16:11.705Z,18.40
2017-11-03T12:18:39.215Z,19.20
2017-11-03T12:21:06.696Z,20.70
2017-11-03T12:23:35.005Z,20.57
2017-11-03T12:26:02.492Z,19.80
2017-11-03T12:28:29.996Z,19.63
2017-11-03T12:30:57.494Z,20.00
2017-11-03T12:33:25.005Z,21.30
2017-11-03T12:35:52.512Z,20.07
2017-11-03T12:38:20.021Z,21.00
2017-11-03T12:40:48.276Z,20.90
2017-11-03T12:43:15.780Z,19.77
2017-11-03T12:45:44.033Z,19.20
2017-11-03T12:48:11.540Z,18.50
2017-11-03T12:50:39.808Z,18.53
2017-11-03T12:53:07.315Z,19.87
2017-11-03T12:55:34.802Z,19.90
2017-11-03T12:58:02.326Z,18.73
2017-11-03T13:00:30.583Z,19.90
2017-11-03T13:02:58.100Z,18.10
2017-11-03T13:05:26.351Z,18.97
2017-11-03T13:07:53.873Z,19.70
2017-11-03T13:10:21.368Z,19.43
2017-11-03T13:12:48.881Z,17.57
2017-11-03T13:15:16.372Z,18.80
2017-11-03T13:17:44.645Z,17.33
2017-11-03T13:20:12.891Z,18.67
2017-11-03T13:22:40.404Z,19.70
2017-11-03T13:25:07.891Z,20.67
2017-11-03T13:27:35.401Z,20.67
2017-11-03T13:30:02.905Z,19.80
2017-11-03T13:32:30.424Z,22.03
2017-11-03T13:34:57.943Z,19.90
2017-11-03T13:37:25.469Z,21.10
2017-11-03T13:39:52.970Z,21.80
2017-11-03T13:42:20.545Z,22.33
2017-11-03T13:44:48.045Z,21.10
2017-11-03T13:47:16.304Z,21.67
2017-11-03T13:49:43.812Z,21.77
2017-11-03T13:52:11.304Z,21.40
2017-11-03T13:54:38.816Z,21.13
2017-11-03T13:57:06.316Z,29.40
2017-11-03T13:59:34.624Z,28.70
2017-11-03T14:02:02.126Z,21.00
2017-11-03T14:04:29.637Z,21.57
2017-11-03T14:06:57.904Z,20.90
2017-11-03T14:09:25.420Z,19.90
2017-11-03T14:11:52.934Z,19.30
2017-11-03T14:14:20.488Z,19.43
2017-11-03T14:16:47.984Z,18.40
2017-11-03T14:19:15.513Z,19.60
2017-11-03T14:21:43.005Z,20.00
2017-11-03T14:24:11.517Z,20.13
2017-11-03T14:26:39.009Z,18.20
2017-11-03T14:29:06.525Z,18.83
2017-11-03T14:31:34.022Z,20.10
2017-11-03T14:34:01.536Z,19.23
2017-11-03T14:36:29.792Z,22.70
2017-11-03T14:38:57.312Z,21.77
2017-11-03T14:41:24.816Z,22.50
2017-11-03T14:43:52.340Z,22.50
2017-11-03T14:46:20.592Z,20.17
2017-11-03T14:48:48.106Z,19.87
2017-11-03T14:51:15.597Z,20.40
2017-11-03T14:53:43.107Z,20.93
2017-11-03T14:56:10.601Z,22.50
2017-11-03T14:58:38.884Z,21.97
2017-11-03T15:01:08.144Z,20.97
2017-11-03T15:03:35.661Z,44.47
2017-11-03T15:06:03.928Z,23.37
2017-11-03T15:08:31.432Z,24.97
2017-11-03T15:10:59.697Z,23.47
2017-11-03T15:13:27.201Z,26.50
2017-11-03T15:15:54.691Z,25.20
2017-11-03T15:18:22.189Z,23.53
2017-11-03T15:20:49.679Z,23.77
2017-11-03T15:23:17.194Z,22.87
2017-11-03T15:25:44.692Z,22.67
2017-11-03T15:28:12.191Z,22.57
2017-11-03T15:30:39.677Z,23.10
2017-11-03T15:33:07.944Z,24.00
2017-11-03T15:35:35.424Z,23.97
2017-11-03T15:38:02.932Z,23.40
2017-11-03T15:40:31.199Z,24.10
2017-11-03T15:43:17.613Z,23.10
2017-11-03T15:45:45.860Z,23.30
2017-11-03T15:48:13.374Z,25.17
2017-11-03T15:50:41.629Z,25.93
2017-11-03T15:53:09.131Z,24.80
2017-11-03T15:55:37.384Z,26.27
2017-11-03T15:58:04.864Z,25.50
2017-11-03T16:00:32.381Z,101.17
2017-11-03T16:02:59.883Z,29.97
2017-11-03T16:05:27.400Z,22.90
2017-11-03T16:07:55.660Z,21.13
2017-11-03T16:10:23.236Z,21.80
2017-11-03T16:12:51.504Z,21.80
2017-11-03T16:15:21.039Z,21.30
2017-11-03T16:17:48.540Z,18.10
2017-11-03T16:20:16.821Z,19.70
2017-11-03T16:22:45.201Z,22.07
2017-11-03T16:25:12.735Z,25.50
2017-11-03T16:27:40.229Z,28.43
2017-11-03T16:30:07.742Z,30.33
2017-11-03T16:32:35.229Z,26.53
2017-11-03T16:35:02.739Z,23.57
2017-11-03T16:37:30.231Z,21.70
2017-11-03T16:39:58.562Z,21.67
2017-11-03T16:42:26.076Z,21.03
2017-11-03T16:44:53.585Z,19.90
2017-11-03T16:47:33.139Z,20.50
2017-11-03T16:50:00.652Z,24.50
2017-11-03T16:52:28.145Z,25.30
2017-11-03T16:54:55.656Z,25.73
2017-11-03T16:57:23.144Z,24.10
2017-11-03T16:59:50.680Z,22.47
2017-11-03T17:02:22.227Z,20.97
2017-11-03T17:04:49.727Z,18.90
2017-11-03T17:07:17.217Z,19.77
2017-11-03T17:09:44.716Z,19.27
2017-11-03T17:12:12.201Z,19.40
2017-11-03T17:14:39.728Z,17.77
2017-11-03T17:17:07.213Z,19.03
2017-11-03T17:19:34.724Z,20.20
2017-11-03T17:22:02.980Z,20.53
2017-11-03T17:24:30.489Z,22.27
2017-11-03T17:26:58.744Z,23.17
2017-11-03T17:29:26.251Z,22.80
2017-11-03T17:31:53.741Z,22.63
2017-11-03T17:34:21.256Z,20.27
2017-11-03T17:36:48.753Z,20.73
2017-11-03T17:39:17.028Z,20.40
2017-11-03T17:41:44.507Z,21.70
2017-11-03T17:44:12.780Z,20.90
2017-11-03T17:46:40.259Z,23.43
2017-11-03T17:49:07.776Z,24.57
2017-11-03T17:51:35.281Z,24.53
2017-11-03T17:54:02.801Z,18.50
2017-11-03T17:56:30.300Z,20.50
2017-11-03T17:58:57.812Z,40.67
2017-11-03T18:01:26.069Z,27.50
2017-11-03T18:03:53.685Z,20.00
2017-11-03T18:06:21.949Z,19.23
2017-11-03T18:08:49.474Z,20.07
2017-11-03T18:11:16.965Z,19.40
2017-11-03T18:13:44.489Z,19.90
2017-11-03T18:16:12.789Z,21.00
2017-11-03T18:18:40.296Z,20.20
2017-11-03T18:21:07.780Z,21.33
2017-11-03T18:23:35.280Z,19.80
2017-11-03T18:26:03.552Z,19.03
2017-11-03T18:28:31.040Z,19.53
2017-11-03T18:30:59.324Z,20.63
2017-11-03T18:33:27.592Z,18.87
2017-11-03T18:35:55.104Z,19.33
2017-11-03T18:38:22.593Z,17.70
2017-11-03T18:40:50.104Z,19.97
2017-11-03T18:43:17.602Z,19.63
2017-11-03T18:45:45.869Z,19.13
2017-11-03T18:48:13.368Z,19.80
2017-11-03T18:50:40.880Z,21.27
2017-11-03T18:53:08.375Z,31.03
2017-11-03T18:55:35.881Z,50.87
2017-11-03T18:58:03.371Z,55.80
2017-11-03T19:00:30.883Z,56.97
2017-11-03T19:02:58.376Z,49.90
2017-11-03T19:05:26.643Z,35.13
2017-11-03T19:07:54.132Z,33.20
2017-11-03T19:10:25.764Z,29.00
2017-11-03T19:12:53.253Z,29.30
2017-11-03T19:15:20.756Z,31.80
2017-11-03T19:17:48.248Z,30.70
2017-11-03T19:20:15.782Z,31.03
2017-11-03T19:22:44.056Z,28.90
2017-11-03T19:25:11.562Z,28.57
2017-11-03T19:27:39.072Z,28.10
2017-11-03T19:30:06.563Z,32.97
2017-11-03T19:32:34.524Z,30.57
2017-11-03T19:35:02.037Z,26.93
2017-11-03T19:37:30.323Z,28.70
2017-11-03T19:39:58.568Z,27.87
2017-11-03T19:42:26.068Z,28.60
2017-11-03T19:44:53.561Z,25.43
2017-11-03T19:47:21.829Z,26.50
2017-11-03T19:49:49.312Z,26.57
2017-11-03T19:52:17.584Z,26.67
2017-11-03T19:54:45.072Z,24.47
2017-11-03T19:57:13.360Z,33.43
2017-11-03T19:59:41.628Z,48.57
2017-11-03T20:02:09.150Z,34.87
2017-11-03T20:04:36.686Z,25.87
2017-11-03T20:07:04.993Z,24.60
2017-11-03T20:09:32.481Z,25.03
2017-11-03T20:11:59.972Z,22.93
2017-11-03T20:14:27.481Z,25.37
2017-11-03T20:16:55.743Z,23.93
2017-11-03T20:19:23.245Z,33.70
2017-11-03T20:21:51.509Z,32.63
2017-11-03T20:24:19.022Z,31.00
2017-11-03T20:26:46.504Z,25.27
2017-11-03T20:29:14.015Z,25.13
2017-11-03T20:31:41.500Z,26.33
2017-11-03T20:34:09.004Z,24.23
2017-11-03T20:36:36.492Z,26.00
2017-11-03T20:39:04.004Z,42.80
2017-11-03T20:41:31.477Z,32.13
2017-11-03T20:43:59.019Z,24.97
2017-11-03T20:46:26.510Z,24.73
2017-11-03T20:48:54.021Z,25.27
2017-11-03T20:51:21.508Z,27.00
2017-11-03T20:53:49.024Z,26.60
2017-11-03T20:56:16.531Z,24.57
2017-11-03T20:58:44.037Z,25.10
2017-11-03T21:01:11.520Z,24.93
2017-11-03T21:03:39.032Z,25.90
2017-11-03T21:06:07.293Z,26.07
2017-11-03T21:08:34.771Z,29.27
2017-11-03T21:11:02.277Z,51.70
2017-11-03T21:13:29.787Z,53.30
2017-11-03T21:15:57.294Z,36.50
2017-11-03T21:18:25.553Z,37.43
2017-11-03T21:20:53.078Z,48.57
2017-11-03T21:23:20.555Z,47.60
2017-11-03T21:25:48.060Z,55.50
2017-11-03T21:28:15.544Z,49.90
2017-11-03T21:30:43.050Z,41.90
2017-11-03T21:33:10.541Z,32.07
2017-11-03T21:35:38.040Z,30.47
2017-11-03T21:38:05.541Z,33.23
2017-11-03T21:40:33.821Z,34.83
2017-11-03T21:43:01.317Z,36.83
2017-11-03T21:45:28.815Z,33.00
2017-11-03T21:47:56.305Z,33.40
2017-11-03T21:50:23.808Z,33.30
2017-11-03T21:52:51.297Z,30.67
2017-11-03T21:55:19.608Z,32.40
2017-11-03T21:57:47.104Z,38.30
2017-11-03T22:00:15.592Z,40.17
2017-11-03T22:02:43.081Z,36.23
2017-11-03T22:05:10.585Z,32.77
2017-11-03T22:07:38.831Z,30.60
2017-11-03T22:10:06.328Z,32.30
2017-11-03T22:12:38.812Z,33.17
2017-11-03T22:15:07.096Z,35.13
2017-11-03T22:17:34.577Z,30.93
2017-11-03T22:20:02.850Z,32.23
2017-11-03T22:22:30.408Z,31.47
2017-11-03T22:24:57.929Z,31.83
2017-11-03T22:27:25.412Z,30.27
2017-11-03T22:29:52.916Z,33.90
2017-11-03T22:32:20.401Z,28.80
2017-11-03T22:34:47.896Z,29.00
2017-11-03T22:37:16.141Z,29.07
2017-11-03T22:39:43.640Z,27.60
2017-11-03T22:42:11.148Z,25.53
2017-11-03T22:44:38.645Z,25.53
2017-11-03T22:47:06.153Z,25.80
2017-11-03T22:49:34.400Z,27.90
2017-11-03T22:52:01.904Z,26.10
2017-11-03T22:54:29.384Z,29.40
2017-11-03T22:56:57.644Z,26.67
2017-11-03T22:59:25.128Z,26.43
2017-11-03T23:01:52.624Z,26.17
2017-11-03T23:04:20.865Z,33.47
2017-11-03T23:06:48.360Z,40.60
2017-11-03T23:09:15.844Z,28.17
2017-11-03T23:11:44.120Z,27.40
2017-11-03T23:14:11.603Z,25.00
2017-11-03T23:16:39.864Z,27.60
2017-11-03T23:19:07.343Z,26.90
2017-11-03T23:21:34.844Z,26.07
2017-11-03T23:24:02.328Z,27.40
2017-11-03T23:26:29.832Z,28.10
2017-11-03T23:28:57.313Z,27.07
2017-11-03T23:31:24.808Z,26.97
2017-11-03T23:33:53.056Z,27.50
2017-11-03T23:36:20.556Z,24.83
2017-11-03T23:38:48.047Z,26.50
2017-11-03T23:41:15.552Z,26.90
2017-11-03T23:43:43.041Z,28.67
2017-11-03T23:46:10.539Z,30.70
2017-11-03T23:48:38.021Z,26.90
2017-11-03T23:51:06.286Z,27.23
2017-11-03T23:53:33.778Z,26.97
2017-11-03T23:56:02.047Z,25.20
2017-11-03T23:58:29.523Z,27.70
